createdAt,value
2022-08-12T00:00:14.177Z,20.73
2022-08-12T00:05:35.019Z,20.52
2022-08-12T00:10:55.335Z,20.40
2022-08-12T00:16:15.488Z,20.51
2022-08-12T00:21:39.722Z,20.58
2022-08-12T00:27:01.836Z,20.59
2022-08-12T00:32:36.018Z,20.39
2022-08-12T00:37:57.178Z,20.36
2022-08-12T00:42:59.702Z,20.28
2022-08-12T00:48:01.320Z,20.09
2022-08-12T00:53:03.612Z,19.92
2022-08-12T00:58:05.703Z,19.99
2022-08-12T01:03:10.068Z,19.66
2022-08-12T01:08:29.931Z,19.92
2022-08-12T01:13:33.676Z,19.55
2022-08-12T01:18:42.111Z,19.79
2022-08-12T01:24:28.879Z,19.83
2022-08-12T01:29:32.947Z,19.80
2022-08-12T01:34:38.339Z,19.69
2022-08-12T01:40:34.313Z,19.56
2022-08-12T01:45:06.512Z,19.45
2022-08-12T01:51:05.290Z,19.15
2022-08-12T01:56:09.300Z,19.29
2022-08-12T02:01:12.158Z,18.89
2022-08-12T02:06:38.650Z,19.02
2022-08-12T02:11:53.805Z,18.69
2022-08-12T02:17:08.636Z,18.76
2022-08-12T02:22:29.676Z,18.37
2022-08-12T02:27:51.852Z,18.64
2022-08-12T02:32:54.602Z,18.40
2022-08-12T02:38:01.192Z,18.03
2022-08-12T02:43:22.682Z,18.34
2022-08-12T02:48:47.324Z,18.55
2022-08-12T02:54:04.392Z,18.51
2022-08-12T02:59:14.341Z,17.95
2022-08-12T03:04:48.017Z,18.18
2022-08-12T03:10:15.979Z,18.63
2022-08-12T03:15:22.882Z,18.49
2022-08-12T03:20:28.440Z,18.21
2022-08-12T03:25:31.718Z,18.12
2022-08-12T03:30:33.412Z,18.09
2022-08-12T03:35:40.319Z,17.81
2022-08-12T03:41:15.928Z,17.85
2022-08-12T03:46:42.360Z,18.10
2022-08-12T03:52:03.635Z,17.99
2022-08-12T03:57:24.157Z,17.80
2022-08-12T04:02:26.618Z,17.26
2022-08-12T04:07:29.997Z,17.70
2022-08-12T04:12:50.337Z,18.05
2022-08-12T04:18:06.620Z,17.90
2022-08-12T04:23:16.785Z,18.14
2022-08-12T04:28:25.502Z,18.08
2022-08-12T04:33:27.400Z,18.50
2022-08-12T04:38:30.025Z,18.39
2022-08-12T04:44:00.375Z,18.30
2022-08-12T04:48:54.326Z,18.42
2022-08-12T04:53:56.143Z,18.32
2022-08-12T04:58:58.526Z,18.33
2022-08-12T05:04:00.495Z,18.74
2022-08-12T05:09:02.381Z,18.58
2022-08-12T05:14:13.290Z,18.88
2022-08-12T05:19:18.444Z,19.04
2022-08-12T05:24:22.736Z,18.68
2022-08-12T05:30:06.372Z,19.19
2022-08-12T05:34:47.982Z,19.61
2022-08-12T05:39:50.273Z,19.91
2022-08-12T05:44:52.028Z,19.88
2022-08-12T05:49:53.610Z,20.01
2022-08-12T05:54:57.830Z,20.45
2022-08-12T05:59:59.657Z,20.51
2022-08-12T06:05:02.364Z,20.79
2022-08-12T06:10:05.509Z,20.85
2022-08-12T06:15:07.424Z,21.01
2022-08-12T06:20:27.501Z,21.32
2022-08-12T06:25:31.778Z,21.07
2022-08-12T06:30:38.327Z,21.36
2022-08-12T06:35:48.909Z,21.38
2022-08-12T06:41:14.987Z,21.60
2022-08-12T06:46:17.044Z,21.83
2022-08-12T06:51:20.692Z,21.74
2022-08-12T06:56:34.964Z,21.82
2022-08-12T07:01:50.891Z,22.04
2022-08-12T07:06:55.774Z,21.56
2022-08-12T07:11:57.342Z,21.07
2022-08-12T07:17:02.351Z,21.12
2022-08-12T07:22:06.387Z,21.31
2022-08-12T07:27:07.953Z,21.14
2022-08-12T07:32:09.566Z,21.34
2022-08-12T07:37:11.150Z,21.66
2022-08-12T07:42:12.789Z,21.63
2022-08-12T07:47:14.380Z,21.80
2022-08-12T07:52:17.027Z,22.10
2022-08-12T07:57:18.584Z,22.36
2022-08-12T08:02:20.438Z,22.58
2022-08-12T08:07:30.722Z,22.38
2022-08-12T08:12:51.156Z,22.11
2022-08-12T08:18:02.765Z,22.31
2022-08-12T08:23:07.948Z,22.34
2022-08-12T08:28:12.527Z,22.47
2022-08-12T08:33:23.464Z,22.57
2022-08-12T08:38:35.527Z,22.61
2022-08-12T08:43:44.053Z,22.72
2022-08-12T08:48:46.398Z,22.74
2022-08-12T08:53:51.831Z,22.88
2022-08-12T08:58:54.550Z,22.92
2022-08-12T09:05:07.237Z,23.13
2022-08-12T09:09:18.328Z,23.42
2022-08-12T09:14:29.482Z,23.35
2022-08-12T09:19:31.217Z,23.50
2022-08-12T09:24:36.226Z,23.64
2022-08-12T09:30:12.001Z,23.76
2022-08-12T09:34:59.326Z,23.69
2022-08-12T09:40:57.912Z,23.67
2022-08-12T09:45:24.606Z,23.76
2022-08-12T09:50:50.734Z,23.87
2022-08-12T09:56:07.112Z,23.77
2022-08-12T10:01:23.176Z,23.99
2022-08-12T10:06:35.911Z,23.87
2022-08-12T10:12:11.347Z,23.88
2022-08-12T10:17:14.541Z,23.77
2022-08-12T10:22:17.248Z,23.87
2022-08-12T10:28:05.406Z,23.88
2022-08-12T10:33:18.844Z,24.19
2022-08-12T10:38:36.604Z,24.30
2022-08-12T10:43:56.600Z,24.54
2022-08-12T10:49:05.503Z,24.57
2022-08-12T10:54:10.142Z,24.58
2022-08-12T10:59:15.865Z,24.79
2022-08-12T11:04:35.932Z,24.91
2022-08-12T11:09:41.460Z,25.23
2022-08-12T11:14:53.473Z,25.19
2022-08-12T11:19:56.263Z,25.06
2022-08-12T11:24:57.800Z,25.25
2022-08-12T11:30:05.369Z,25.20
2022-08-12T11:35:09.350Z,25.14
2022-08-12T11:40:13.363Z,25.12
2022-08-12T11:45:16.362Z,25.09
2022-08-12T11:50:20.451Z,25.25
2022-08-12T11:55:23.273Z,25.17
2022-08-12T12:05:46.888Z,25.28
2022-08-12T12:10:52.073Z,25.50
2022-08-12T12:15:53.710Z,25.16
2022-08-12T12:20:58.698Z,25.03
2022-08-12T12:26:08.185Z,25.02
2022-08-12T12:31:15.097Z,25.04
2022-08-12T12:36:32.945Z,25.15
2022-08-12T12:42:43.229Z,25.05
2022-08-12T12:46:56.885Z,25.31
2022-08-12T12:52:19.727Z,25.08
2022-08-12T12:57:21.589Z,25.48
2022-08-12T13:02:40.287Z,25.24
2022-08-12T13:07:54.306Z,25.53
2022-08-12T13:12:56.978Z,25.34
2022-08-12T13:18:05.117Z,25.40
2022-08-12T13:23:37.313Z,25.48
2022-08-12T13:28:31.606Z,25.46
2022-08-12T13:34:32.316Z,25.63
2022-08-12T13:38:57.483Z,25.56
2022-08-12T13:44:00.050Z,25.86
2022-08-12T13:49:04.819Z,25.60
2022-08-12T13:54:11.598Z,25.70
2022-08-12T13:59:16.095Z,25.62
2022-08-12T14:04:18.296Z,25.49
2022-08-12T14:09:21.832Z,25.48
2022-08-12T14:14:24.456Z,25.53
2022-08-12T14:19:27.105Z,25.50
2022-08-12T14:24:40.782Z,25.97
2022-08-12T14:30:05.548Z,25.71
2022-08-12T14:35:09.636Z,25.66
2022-08-12T14:40:18.662Z,25.67
2022-08-12T14:45:44.817Z,25.75
2022-08-12T14:51:09.544Z,25.85
2022-08-12T14:56:59.552Z,25.80
2022-08-12T15:01:40.118Z,25.99
2022-08-12T15:06:52.607Z,26.13
2022-08-12T15:12:03.933Z,25.80
2022-08-12T15:17:07.699Z,25.99
2022-08-12T15:22:38.644Z,25.94
2022-08-12T15:28:10.928Z,25.96
2022-08-12T15:32:59.181Z,25.81
2022-08-12T15:38:09.159Z,26.09
2022-08-12T15:44:17.055Z,25.99
2022-08-12T15:48:37.530Z,25.90
2022-08-12T15:53:57.696Z,25.97
2022-08-12T15:58:59.623Z,26.08
2022-08-12T16:04:01.267Z,25.93
2022-08-12T16:09:02.868Z,25.83
2022-08-12T16:14:09.580Z,26.05
2022-08-12T16:20:01.751Z,25.77
2022-08-12T16:24:39.019Z,25.90
2022-08-12T16:29:54.288Z,25.89
2022-08-12T16:34:57.557Z,25.94
2022-08-12T16:40:06.155Z,25.80
2022-08-12T16:45:09.867Z,25.83
2022-08-12T16:50:15.373Z,25.96
2022-08-12T16:55:18.660Z,25.80
2022-08-12T17:00:20.514Z,25.69
2022-08-12T17:05:25.075Z,25.78
2022-08-12T17:10:37.025Z,25.77
2022-08-12T17:15:56.810Z,25.72
2022-08-12T17:21:04.326Z,25.57
2022-08-12T17:26:06.406Z,25.56
2022-08-12T17:31:08.705Z,25.53
2022-08-12T17:36:10.674Z,25.65
2022-08-12T17:41:23.376Z,25.41
2022-08-12T17:46:34.371Z,25.36
2022-08-12T17:51:50.299Z,25.33
2022-08-12T17:57:01.386Z,25.31
2022-08-12T18:02:03.794Z,25.16
2022-08-12T18:07:08.546Z,25.12
2022-08-12T18:12:34.464Z,25.09
2022-08-12T18:17:39.066Z,25.02
2022-08-12T18:22:41.757Z,24.93
2022-08-12T18:27:46.825Z,24.82
2022-08-12T18:32:58.332Z,24.75
2022-08-12T18:38:04.945Z,24.68
2022-08-12T18:43:15.125Z,24.62
2022-08-12T18:48:20.960Z,24.55
2022-08-12T18:54:05.154Z,24.48
2022-08-12T18:58:59.705Z,24.40
2022-08-12T19:04:09.063Z,24.31
2022-08-12T19:09:14.612Z,24.27
2022-08-12T19:14:27.458Z,24.17
2022-08-12T19:19:38.874Z,24.17
2022-08-12T19:25:02.221Z,24.10
2022-08-12T19:30:09.187Z,24.01
2022-08-12T19:40:35.192Z,23.87
2022-08-12T19:45:43.881Z,23.82
2022-08-12T19:50:53.449Z,23.79
2022-08-12T19:55:57.388Z,23.67
2022-08-12T20:00:59.065Z,23.57
2022-08-12T20:06:06.434Z,23.62
2022-08-12T20:12:09.144Z,23.50
2022-08-12T20:21:58.851Z,23.36
2022-08-12T20:27:00.601Z,23.30
2022-08-12T20:32:05.987Z,23.25
2022-08-12T20:37:12.065Z,23.24
2022-08-12T20:42:13.803Z,23.17
2022-08-12T20:47:19.867Z,23.03
2022-08-12T20:52:25.304Z,23.17
2022-08-12T20:57:38.024Z,23.09
2022-08-12T21:02:50.011Z,22.98
2022-08-12T21:07:52.637Z,23.04
2022-08-12T21:12:54.273Z,22.91
2022-08-12T21:18:15.445Z,22.81
2022-08-12T21:23:23.347Z,22.77
2022-08-12T21:28:27.613Z,22.63
2022-08-12T21:33:58.802Z,22.70
2022-08-12T21:38:58.100Z,22.57
2022-08-12T21:44:01.646Z,22.52
2022-08-12T21:49:05.397Z,22.35
2022-08-12T21:54:10.018Z,22.33
2022-08-12T21:59:16.261Z,22.27
2022-08-12T22:04:36.930Z,22.22
2022-08-12T22:09:42.550Z,22.12
2022-08-12T22:14:45.265Z,22.21
2022-08-12T22:19:49.669Z,22.07
2022-08-12T22:24:51.808Z,21.95
2022-08-12T22:30:19.725Z,21.89
2022-08-12T22:35:55.892Z,21.83
2022-08-12T22:41:01.661Z,21.61
2022-08-12T22:46:22.688Z,21.77
2022-08-12T22:51:38.200Z,21.76
2022-08-12T22:56:55.057Z,21.62
2022-08-12T23:02:02.009Z,21.43
2022-08-12T23:07:05.508Z,21.53
2022-08-12T23:12:09.252Z,21.39
2022-08-12T23:17:40.879Z,21.29
2022-08-12T23:22:56.068Z,21.29
2022-08-12T23:28:29.979Z,21.15
2022-08-12T23:34:00.063Z,21.05
2022-08-12T23:38:58.714Z,21.17
2022-08-12T23:44:06.843Z,21.16
2022-08-12T23:49:26.877Z,20.97
2022-08-12T23:54:38.530Z,20.85
2022-08-12T23:59:43.441Z,20.86
